Decoded Metar for KSPA (SPARTANBURG VOR in SC, USA) (IATA:SPA) | Meteo·Mobile Aviation Weather
aviador You're here:

KSPA Decoded Metar

SPARTANBURG VOR in SC, USA
Report Time2018-10-20 12:55:00
UTC Time2018-10-20 13:10:03
Flight Rules vfr VFR
Wind240° at 08 kt
W.Decomp.*RWY 23: 7.7 kt HW 2.1 kt RCW
W.Rank240° ranks 2
Current wind is above 240° avg. (6.0)
Visibility9999 m
Phenomena:N/A
Clouds:Scattered 100 Hf
Expected CloudBase > 800 ft AGL from Temp-Dew spread
CeilingNone
Temp17°C (ISA +4)
Dew Point15°C (88% RH)
AAT15.7°C
QNH1014 hPa
Density Alt1,660 ft
Elevation994 ft
Report Wrong Elevation
Raw Report
METAR KSPA 201255Z AUTO 24008KT 10SM SCT100 17/15 A2995 RMK AO2=

Extra information for KSPA:More info

Metar Taf Metar & Taf Last 4 Metars F.Rules Stats Wind Profile Meteogram Temp Stats Airport Information Weather charts Add Link Nearby VenuesMetar ALERT Operation Metar Decoded Social comments

AIRNAV info for KSPA